Time;durP1;ratioP1;P1;durP2;ratioP2;P2;SDS_P1;SDS_P2;PMS_P1;PMS_P2;Temp;Humidity;BMP_temperature;BMP_pressure;BME280_temperature;BME280_humidity;BME280_pressure;Samples;Min_cycle;Max_cycle;Signal;HPM_P1;HPM_P2
2022/05/24 03:01:34;;;;;;;49.70;26.73;;;13.30;99.90;;;;;;6227915;22;20016;-82
2022/05/24 03:26:44;;;;;;;49.45;26.40;;;13.40;99.90;;;;;;6308285;22;20010;-84
2022/05/24 03:29:14;;;;;;;49.92;26.42;;;13.50;99.90;;;;;;6256494;22;20011;-82
2022/05/24 03:34:08;;;;;;;48.30;25.33;;;13.50;99.90;;;;;;6248026;22;20020;-83
2022/05/24 03:44:23;;;;;;;45.05;23.58;;;13.50;99.90;;;;;;6187638;23;20024;-83
2022/05/24 03:47:43;;;;;;;40.88;21.63;;;13.50;99.90;;;;;;6161091;23;20384;-83
2022/05/24 04:52:18;;;;;;;43.25;22.52;;;13.50;99.90;;;;;;6159541;22;20021;-85
2022/05/24 04:55:28;;;;;;;36.78;20.27;;;13.50;99.90;;;;;;6209045;22;20047;-84
2022/05/24 05:05:41;;;;;;;40.95;18.55;;;13.40;99.90;;;;;;6214478;23;20020;-82
2022/05/24 05:08:42;;;;;;;35.78;18.50;;;13.30;99.90;;;;;;6164340;23;20017;-81
2022/05/24 05:11:10;;;;;;;32.80;17.52;;;13.30;99.90;;;;;;6213215;23;20044;-83
2022/05/24 05:13:36;;;;;;;30.48;16.70;;;13.30;99.90;;;;;;6159622;23;20013;-82
2022/05/24 05:16:28;;;;;;;;;;;;;;;;;;;;;
2022/05/24 05:19:37;;;;;;;27.65;15.82;;;13.30;99.90;;;;;;6220084;23;20011;-79
2022/05/24 05:25:29;;;;;;;31.02;14.45;;;13.20;99.90;;;;;;6171039;23;20025;-81
2022/05/24 05:28:56;;;;;;;27.10;14.30;;;13.20;99.90;;;;;;6188939;23;20390;-80
2022/05/24 05:32:05;;;;;;;34.22;14.35;;;13.20;99.90;;;;;;6134469;23;20016;-79
2022/05/24 05:34:53;;;;;;;32.35;14.70;;;13.20;99.90;;;;;;6158609;23;20497;-83
2022/05/24 05:40:29;;;;;;;26.00;13.00;;;13.20;99.90;;;;;;6099786;23;20021;-80
2022/05/24 05:47:05;;;;;;;28.52;14.27;;;13.30;99.90;;;;;;6153597;23;20489;-81
2022/05/24 05:49:52;;;;;;;;;;;;;;;;;;;;;
2022/05/24 05:59:44;;;;;;;29.83;13.70;;;13.40;99.90;;;;;;6246884;23;20101;-80
2022/05/24 06:02:10;;;;;;;28.23;14.05;;;13.30;99.90;;;;;;6219599;23;20439;-80
2022/05/24 06:04:39;;;;;;;26.60;14.93;;;13.30;99.90;;;;;;6246456;23;20058;-81
2022/05/24 06:07:05;;;;;;;27.58;14.82;;;13.40;99.90;;;;;;6194451;23;20052;-82
2022/05/24 06:09:31;;;;;;;27.23;12.75;;;13.40;99.90;;;;;;6194880;23;20092;-81
2022/05/24 06:11:58;;;;;;;29.85;12.65;;;13.40;99.90;;;;;;6219334;23;20051;-77
2022/05/24 06:14:24;;;;;;;25.73;13.35;;;13.40;99.90;;;;;;6246733;23;20333;-83
2022/05/24 06:16:50;;;;;;;21.65;12.18;;;13.50;99.90;;;;;;6192754;23;20012;-82
2022/05/24 06:19:16;;;;;;;26.17;12.68;;;13.50;99.90;;;;;;6193978;23;20019;-82
2022/05/24 06:21:42;;;;;;;24.85;14.00;;;13.50;99.90;;;;;;6194025;23;20042;-81
2022/05/24 06:24:08;;;;;;;26.88;12.43;;;13.60;99.90;;;;;;6194597;23;20074;-81
2022/05/24 06:26:34;;;;;;;22.90;12.00;;;13.60;99.90;;;;;;6194842;23;20050;-78
2022/05/24 06:29:01;;;;;;;22.50;12.15;;;13.60;99.90;;;;;;6219235;23;20095;-80
2022/05/24 06:31:42;;;;;;;29.45;13.25;;;13.60;99.90;;;;;;6202716;22;20029;-81
2022/05/24 06:35:21;;;;;;;24.70;12.05;;;13.60;99.90;;;;;;6208601;23;20013;-80
2022/05/24 06:38:18;;;;;;;21.63;12.25;;;13.60;99.90;;;;;;6214518;23;20451;-80
2022/05/24 06:41:46;;;;;;;22.73;11.75;;;13.60;99.90;;;;;;6214455;23;20131;-80
2022/05/24 06:44:21;;;;;;;27.33;12.32;;;13.60;99.90;;;;;;6125657;23;20119;-81
2022/05/24 06:47:21;;;;;;;25.38;11.40;;;13.60;99.90;;;;;;6125772;23;20056;-79
2022/05/24 06:50:08;;;;;;;20.40;11.02;;;13.60;99.90;;;;;;6123507;23;20093;-81
2022/05/24 06:52:43;;;;;;;23.42;11.73;;;13.60;99.90;;;;;;6266541;22;20024;-81
2022/05/24 06:55:15;;;;;;;22.73;11.75;;;13.60;99.90;;;;;;6249434;22;20438;-80
2022/05/24 06:57:41;;;;;;;21.25;11.52;;;13.60;99.90;;;;;;6277132;22;20054;-79
2022/05/24 07:03:07;;;;;;;23.95;11.45;;;13.70;99.90;;;;;;6245267;23;20065;-80
2022/05/24 07:05:32;;;;;;;24.23;12.40;;;13.60;99.90;;;;;;6249243;22;20008;-83
2022/05/24 07:08:00;;;;;;;21.08;12.18;;;13.60;99.90;;;;;;6246466;23;20016;-80
2022/05/24 07:10:27;;;;;;;25.45;12.27;;;13.60;99.90;;;;;;6221420;23;20016;-81
2022/05/24 07:13:17;;;;;;;20.40;11.30;;;13.60;99.90;;;;;;6220794;23;20050;-83
2022/05/24 07:15:43;;;;;;;20.90;11.27;;;13.60;99.90;;;;;;6216229;23;20020;-84
2022/05/24 07:18:08;;;;;;;18.98;10.35;;;13.70;99.90;;;;;;6221288;23;20019;-81
2022/05/24 07:20:36;;;;;;;19.75;10.43;;;13.60;99.90;;;;;;6246303;23;20012;-80
2022/05/24 07:23:14;;;;;;;22.70;10.32;;;13.60;99.90;;;;;;6247717;22;20008;-80
2022/05/24 07:25:41;;;;;;;18.90;10.77;;;13.70;99.90;;;;;;6248945;22;20082;-82
2022/05/24 07:28:08;;;;;;;21.25;10.32;;;13.70;99.90;;;;;;6220667;23;20103;-80
2022/05/24 07:30:35;;;;;;;20.90;10.95;;;13.70;99.90;;;;;;6220696;23;20095;-80
2022/05/24 07:33:01;;;;;;;20.55;10.48;;;13.80;99.90;;;;;;6220787;23;20054;-79
2022/05/24 07:35:27;;;;;;;24.00;10.73;;;13.80;99.90;;;;;;6247957;22;20008;-79
2022/05/24 07:37:53;;;;;;;22.95;10.70;;;13.80;99.90;;;;;;6246848;23;20012;-80
2022/05/24 07:45:50;;;;;;;16.70;10.63;;;13.70;99.90;;;;;;6248076;23;20012;-80
2022/05/24 07:48:18;;;;;;;20.77;10.98;;;13.50;99.90;;;;;;6246928;23;20013;-81
2022/05/24 07:50:44;;;;;;;21.10;11.60;;;13.40;99.90;;;;;;6256227;22;20443;-80
2022/05/24 07:53:10;;;;;;;23.25;11.43;;;13.30;99.90;;;;;;6282540;22;20011;-82
2022/05/24 07:55:40;;;;;;;22.35;12.65;;;13.30;99.90;;;;;;6256665;22;20019;-80
2022/05/24 07:58:06;;;;;;;20.77;12.25;;;13.30;99.90;;;;;;6256473;22;20015;-81
2022/05/24 08:00:34;;;;;;;20.75;12.30;;;13.30;99.90;;;;;;6255652;22;20090;-80
2022/05/24 08:03:01;;;;;;;21.92;12.25;;;13.20;99.90;;;;;;6256451;22;20023;-80
2022/05/24 08:05:29;;;;;;;25.30;12.40;;;13.20;99.90;;;;;;6281478;22;20015;-81
2022/05/24 08:07:55;;;;;;;19.05;12.02;;;13.20;99.90;;;;;;6256193;22;20007;-81
2022/05/24 08:10:21;;;;;;;26.60;13.50;;;13.20;99.90;;;;;;6309087;22;20011;-80
2022/05/24 08:12:46;;;;;;;21.73;12.93;;;13.20;99.90;;;;;;6308584;22;20080;-80
2022/05/24 08:15:13;;;;;;;30.85;14.20;;;13.20;99.90;;;;;;6255998;22;20011;-83
2022/05/24 08:17:39;;;;;;;25.95;13.98;;;13.20;99.90;;;;;;6308922;22;20008;-81
2022/05/24 08:20:09;;;;;;;22.63;12.50;;;13.20;99.90;;;;;;6256010;22;20459;-80
2022/05/24 08:22:37;;;;;;;20.80;12.30;;;13.30;99.90;;;;;;6281233;22;20015;-78
2022/05/24 08:25:06;;;;;;;20.70;10.75;;;13.40;99.90;;;;;;6308938;22;20011;-81
2022/05/24 08:27:32;;;;;;;16.60;9.20;;;13.50;99.90;;;;;;6256355;22;20012;-80
2022/05/24 08:29:59;;;;;;;14.70;9.10;;;13.50;99.90;;;;;;6308960;22;20010;-82
2022/05/24 08:32:26;;;;;;;15.55;7.40;;;13.60;99.90;;;;;;6308467;22;20022;-80
2022/05/24 08:34:51;;;;;;;11.35;7.30;;;13.60;99.90;;;;;;6281155;22;20012;-78
2022/05/24 08:37:18;;;;;;;11.63;7.20;;;13.60;99.90;;;;;;6281206;22;20144;-83
2022/05/24 08:39:44;;;;;;;14.40;7.32;;;13.70;99.90;;;;;;6308877;22;20014;-81
2022/05/24 08:42:40;;;;;;;14.18;7.78;;;13.80;99.90;;;;;;6308648;22;20436;-81
2022/05/24 08:48:23;;;;;;;2.25;1.38;;;13.90;99.90;;;;;;6281164;22;20019;-81
2022/05/24 08:50:53;;;;;;;4.28;1.20;;;13.50;99.90;;;;;;6280855;22;20448;-81
2022/05/24 08:53:30;;;;;;;2.88;1.00;;;13.20;99.90;;;;;;6281492;22;20011;-81
2022/05/24 08:55:58;;;;;;;3.47;0.85;;;13.10;99.90;;;;;;6256299;22;20011;-80
2022/05/24 08:58:31;;;;;;;5.13;0.90;;;13.00;99.90;;;;;;6255695;22;20068;-80
2022/05/24 09:00:58;;;;;;;2.35;0.90;;;12.80;99.90;;;;;;6308048;22;20011;-78
2022/05/24 09:03:25;;;;;;;3.30;1.02;;;12.70;99.90;;;;;;6308978;22;20086;-78
2022/05/24 09:06:06;;;;;;;2.22;1.10;;;12.50;99.90;;;;;;6255716;22;20041;-81
2022/05/24 09:08:40;;;;;;;5.55;1.25;;;12.40;99.90;;;;;;6308614;22;20333;-80
2022/05/24 09:11:34;;;;;;;2.28;0.80;;;12.40;99.90;;;;;;6280763;22;20349;-79
2022/05/24 09:14:11;;;;;;;6.60;1.45;;;12.30;99.90;;;;;;6247620;22;20015;-81
2022/05/24 09:16:56;;;;;;;5.88;1.23;;;12.30;99.90;;;;;;6280964;22;20011;-81
2022/05/24 09:19:25;;;;;;;3.47;1.48;;;12.30;99.90;;;;;;6281173;22;20015;-81
2022/05/24 09:21:54;;;;;;;5.50;2.03;;;12.40;99.90;;;;;;6280539;22;20015;-81
2022/05/24 09:24:42;;;;;;;4.88;2.97;;;12.50;99.90;;;;;;6308385;22;20011;-80
2022/05/24 09:27:15;;;;;;;11.75;5.05;;;12.60;99.90;;;;;;6265897;22;20091;-81
2022/05/24 09:29:58;;;;;;;8.25;4.53;;;12.70;99.90;;;;;;6280749;22;20051;-83
2022/05/24 09:32:34;;;;;;;7.07;4.85;;;12.80;99.90;;;;;;6280980;22;20011;-81
2022/05/24 09:35:22;;;;;;;9.10;5.53;;;12.80;99.90;;;;;;6308002;22;20499;-80
2022/05/24 09:38:03;;;;;;;10.32;5.63;;;12.90;99.90;;;;;;6280050;22;20383;-79
2022/05/24 09:40:30;;;;;;;8.00;4.75;;;12.90;99.90;;;;;;6280410;22;20022;-80
2022/05/24 09:43:02;;;;;;;8.48;5.30;;;13.00;99.90;;;;;;6280358;22;20341;-80
2022/05/24 09:45:36;;;;;;;9.32;4.75;;;13.00;99.90;;;;;;6308367;22;20064;-81
2022/05/24 09:48:02;;;;;;;9.48;5.25;;;13.10;99.90;;;;;;6308254;22;20053;-81
2022/05/24 09:50:34;;;;;;;8.95;5.65;;;13.20;99.90;;;;;;6281663;22;20051;-80
2022/05/24 09:53:02;;;;;;;8.57;5.68;;;13.10;99.90;;;;;;6308570;22;20038;-82
2022/05/24 09:56:01;;;;;;;14.10;5.70;;;13.00;99.90;;;;;;6307805;22;20057;-81
2022/05/24 09:58:50;;;;;;;6.88;2.92;;;12.90;99.90;;;;;;6280526;22;20016;-82
2022/05/24 10:01:40;;;;;;;4.55;2.35;;;12.80;99.90;;;;;;6306611;22;20031;-82
2022/05/24 10:04:27;;;;;;;4.43;2.40;;;12.60;99.90;;;;;;6280449;22;20085;-83
2022/05/24 10:06:59;;;;;;;4.68;1.90;;;12.50;99.90;;;;;;6307688;22;20007;-81
2022/05/24 10:09:49;;;;;;;5.30;2.17;;;12.60;99.90;;;;;;6254669;22;20062;-82
2022/05/24 10:12:32;;;;;;;5.88;1.70;;;12.70;99.90;;;;;;6308066;22;20011;-82
2022/05/24 10:15:03;;;;;;;2.80;1.52;;;12.80;99.90;;;;;;6280141;22;20341;-81
2022/05/24 10:17:42;;;;;;;3.88;1.58;;;13.10;99.90;;;;;;6254969;22;20449;-82
2022/05/24 10:20:21;;;;;;;4.00;1.80;;;13.20;99.90;;;;;;6280038;22;20034;-83
2022/05/24 10:23:04;;;;;;;4.10;2.05;;;13.30;99.90;;;;;;6280166;22;20345;-85
2022/05/24 10:25:56;;;;;;;3.80;2.20;;;13.30;99.90;;;;;;6280546;22;20012;-82
2022/05/24 10:28:46;;;;;;;4.65;2.53;;;13.30;99.90;;;;;;6281613;22;20043;-80
2022/05/24 10:31:37;;;;;;;6.65;2.22;;;13.30;99.90;;;;;;6255491;22;20069;-81
2022/05/24 10:39:40;;;;;;;9.05;2.80;;;13.10;99.90;;;;;;6283164;22;20441;-79
2022/05/24 10:42:12;;;;;;;5.43;2.63;;;13.10;99.90;;;;;;6283134;22;20007;-81
2022/05/24 10:44:51;;;;;;;5.82;3.20;;;13.10;99.90;;;;;;6310915;22;20015;-81
2022/05/24 10:47:24;;;;;;;7.80;2.92;;;13.00;99.90;;;;;;6282314;22;20026;-81
2022/05/24 10:49:56;;;;;;;6.95;3.15;;;13.00;99.90;;;;;;6257393;22;20019;-82
2022/05/24 10:52:28;;;;;;;5.57;2.95;;;13.00;99.90;;;;;;6257743;22;20019;-82
2022/05/24 10:55:06;;;;;;;4.95;2.50;;;13.00;99.90;;;;;;6309999;22;20104;-81
2022/05/24 10:57:40;;;;;;;5.72;3.10;;;13.00;99.90;;;;;;6309542;22;20045;-79
2022/05/24 11:00:14;;;;;;;6.05;3.00;;;13.00;99.90;;;;;;6282194;22;20011;-81
2022/05/24 11:03:08;;;;;;;4.80;1.70;;;13.10;99.90;;;;;;6198982;22;20070;-81
2022/05/24 11:05:50;;;;;;;5.65;1.80;;;13.30;99.90;;;;;;6248041;23;20012;-79
2022/05/24 11:09:19;;;;;;;3.78;1.40;;;13.40;99.90;;;;;;6196913;23;20019;-81
2022/05/24 11:11:57;;;;;;;2.47;1.10;;;13.40;99.90;;;;;;6208887;22;20019;-79
2022/05/24 11:14:35;;;;;;;5.32;1.23;;;13.60;99.90;;;;;;6251268;22;20012;-81
2022/05/24 11:17:01;;;;;;;3.47;0.80;;;13.70;99.90;;;;;;6251251;22;20011;-81
2022/05/24 11:19:44;;;;;;;2.50;0.80;;;13.80;99.90;;;;;;6226293;22;20018;-81
2022/05/24 11:22:16;;;;;;;1.33;0.77;;;14.10;99.90;;;;;;6275074;22;20011;-79
2022/05/24 11:24:47;;;;;;;4.22;0.90;;;14.20;99.90;;;;;;6257695;22;20016;-83
2022/05/24 11:27:22;;;;;;;3.58;0.90;;;14.20;99.90;;;;;;6309441;22;20057;-81
2022/05/24 11:30:06;;;;;;;2.10;1.42;;;14.20;99.90;;;;;;6256025;22;20455;-81
2022/05/24 11:32:39;;;;;;;2.83;0.90;;;14.20;99.90;;;;;;6281739;22;20337;-81
2022/05/24 11:35:19;;;;;;;7.93;1.20;;;14.30;99.90;;;;;;6256147;22;20019;-82
2022/05/24 11:37:50;;;;;;;3.40;1.40;;;14.30;99.90;;;;;;6256820;22;20026;-81
2022/05/24 11:40:36;;;;;;;2.88;1.10;;;14.40;99.90;;;;;;6282779;22;20011;-81
2022/05/24 11:43:08;;;;;;;4.75;1.23;;;14.40;99.90;;;;;;6256516;22;20062;-82
2022/05/24 11:45:37;;;;;;;4.60;1.40;;;14.40;99.90;;;;;;6256971;22;20011;-82
2022/05/24 11:48:13;;;;;;;2.83;1.50;;;14.70;99.90;;;;;;6281497;22;20018;-81
2022/05/24 11:50:51;;;;;;;5.80;1.20;;;14.70;99.90;;;;;;6256846;22;20305;-82
2022/05/24 11:53:39;;;;;;;12.38;1.73;;;14.70;99.90;;;;;;6256947;22;20402;-80
2022/05/24 11:56:12;;;;;;;7.00;1.88;;;14.50;99.90;;;;;;6282158;22;20015;-80
2022/05/24 11:58:54;;;;;;;3.47;1.17;;;14.50;99.90;;;;;;6281903;22;20393;-82
2022/05/24 12:07:54;;;;;;;1.10;0.57;;;14.10;99.90;;;;;;6252350;22;19911;-80
2022/05/24 12:10:23;;;;;;;1.88;0.68;;;13.60;99.90;;;;;;6252520;22;20011;-80
2022/05/24 12:12:53;;;;;;;4.13;0.90;;;13.10;99.90;;;;;;6256981;22;20015;-80
2022/05/24 12:15:22;;;;;;;2.33;0.98;;;12.90;99.90;;;;;;6281230;22;20382;-82
2022/05/24 12:18:11;;;;;;;2.72;1.17;;;12.80;99.90;;;;;;6255556;22;20020;-79
2022/05/24 12:20:37;;;;;;;4.97;1.30;;;13.00;99.90;;;;;;6308850;22;20022;-81
2022/05/24 12:23:09;;;;;;;5.43;1.20;;;13.00;99.90;;;;;;6308822;22;20007;-81
2022/05/24 12:25:58;;;;;;;4.07;1.30;;;13.20;99.90;;;;;;6255546;22;20015;-82
2022/05/24 12:28:43;;;;;;;3.85;1.52;;;13.40;99.90;;;;;;6281199;22;20082;-81
2022/05/24 12:31:24;;;;;;;5.28;1.35;;;13.50;99.90;;;;;;6254596;22;20094;-82
2022/05/24 12:33:52;;;;;;;4.90;1.60;;;13.70;99.90;;;;;;6281153;22;20019;-80
2022/05/24 12:36:24;;;;;;;5.22;1.90;;;14.10;99.90;;;;;;6308766;22;20017;-80
2022/05/24 12:39:00;;;;;;;6.57;2.35;;;14.30;99.90;;;;;;6256069;22;20049;-78
2022/05/24 12:41:34;;;;;;;3.95;2.35;;;14.40;99.90;;;;;;6308183;22;20452;-81
2022/05/24 12:44:01;;;;;;;4.57;2.00;;;14.40;99.90;;;;;;6281637;22;20368;-79
2022/05/24 12:46:33;;;;;;;5.53;1.80;;;14.50;99.90;;;;;;6308649;22;20286;-82
2022/05/24 12:49:07;;;;;;;7.25;1.40;;;14.70;99.90;;;;;;6308611;22;20011;-79
2022/05/24 12:51:33;;;;;;;2.95;1.42;;;14.80;99.90;;;;;;6255876;22;20011;-82
2022/05/24 12:54:11;;;;;;;3.17;2.13;;;15.30;99.90;;;;;;6255514;22;20011;-82
2022/05/24 12:56:37;;;;;;;4.13;1.50;;;15.60;99.90;;;;;;6256527;22;20104;-81
2022/05/24 12:59:11;;;;;;;2.88;1.17;;;15.60;99.90;;;;;;6308486;22;20007;-80
2022/05/24 13:01:41;;;;;;;6.25;2.03;;;15.50;99.90;;;;;;6254689;22;20015;-80
2022/05/24 13:04:12;;;;;;;3.33;1.42;;;15.40;99.90;;;;;;6308695;22;20003;-82
2022/05/24 13:06:41;;;;;;;4.00;1.73;;;15.20;99.90;;;;;;6255496;22;20393;-83
2022/05/24 13:09:21;;;;;;;4.30;1.80;;;15.00;99.90;;;;;;6255168;22;20015;-82
2022/05/24 13:11:58;;;;;;;3.70;2.03;;;14.90;99.90;;;;;;6255445;22;20318;-79
2022/05/24 13:15:02;;;;;;;4.07;1.90;;;15.00;99.90;;;;;;6255309;22;20068;-85
2022/05/24 13:17:42;;;;;;;7.43;2.33;;;15.10;99.90;;;;;;6308296;22;20094;-85
2022/05/24 13:20:12;;;;;;;5.15;2.47;;;15.30;99.90;;;;;;6307832;22;20064;-79
2022/05/24 13:22:56;;;;;;;4.40;2.42;;;15.30;99.90;;;;;;6307944;22;20015;-82
2022/05/24 13:25:23;;;;;;;5.18;2.60;;;15.10;99.90;;;;;;6254957;22;20064;-79
2022/05/24 13:28:01;;;;;;;4.15;1.70;;;15.00;99.90;;;;;;6308473;22;20056;-81
2022/05/24 13:33:47;;;;;;;4.10;2.28;;;15.10;99.90;;;;;;6219796;23;20062;-83
2022/05/24 13:36:15;;;;;;;3.83;2.38;;;15.10;99.90;;;;;;6219586;23;20012;-81
2022/05/24 13:38:43;;;;;;;5.18;2.67;;;15.00;99.90;;;;;;6219693;23;20012;-81
2022/05/24 13:41:10;;;;;;;5.88;3.03;;;14.90;99.90;;;;;;6257602;22;20373;-82
2022/05/24 13:43:36;;;;;;;4.60;3.13;;;14.80;99.90;;;;;;6224857;22;20512;-80
2022/05/24 13:46:11;;;;;;;5.78;2.90;;;14.70;99.90;;;;;;6249951;22;20012;-81
2022/05/24 13:48:53;;;;;;;17.95;3.67;;;14.60;99.90;;;;;;6224428;22;20016;-81
2022/05/24 13:51:28;;;;;;;8.40;4.00;;;14.50;99.90;;;;;;6225365;22;20334;-82
2022/05/24 13:53:55;;;;;;;7.93;3.50;;;14.40;99.90;;;;;;6225608;22;20015;-79
2022/05/24 13:56:37;;;;;;;7.80;4.35;;;14.30;99.90;;;;;;6224573;22;20038;-83
2022/05/24 13:59:21;;;;;;;8.18;4.07;;;14.30;99.90;;;;;;6277047;22;20016;-81
2022/05/24 14:02:24;;;;;;;;;;;;;;;;;;;;;
2022/05/24 14:05:35;;;;;;;7.35;3.67;;;14.40;99.90;;;;;;6317582;22;20022;-79
2022/05/24 14:09:09;;;;;;;8.20;4.18;;;14.30;99.90;;;;;;6289009;22;20045;-81
2022/05/24 14:11:51;;;;;;;8.80;4.05;;;14.40;99.90;;;;;;6293934;22;20015;-83
2022/05/24 14:14:17;;;;;;;7.65;3.70;;;14.30;99.90;;;;;;6280714;22;20022;-81
2022/05/24 14:16:44;;;;;;;6.80;3.63;;;14.40;99.90;;;;;;6255120;22;20098;-82
2022/05/24 14:19:10;;;;;;;6.18;2.97;;;14.40;99.90;;;;;;6254688;22;20019;-81
2022/05/24 14:21:40;;;;;;;9.00;3.42;;;14.40;99.90;;;;;;6254772;22;20011;-80
2022/05/24 14:24:12;;;;;;;9.90;3.75;;;14.40;99.90;;;;;;6307440;22;20026;-78
2022/05/24 14:26:43;;;;;;;7.32;3.72;;;14.50;99.90;;;;;;6255257;22;20012;-80
2022/05/24 14:29:09;;;;;;;5.20;3.20;;;14.80;99.90;;;;;;6255114;22;20429;-80
2022/05/24 14:31:36;;;;;;;6.00;4.18;;;15.10;99.90;;;;;;6280359;22;20011;-82
2022/05/24 14:34:03;;;;;;;5.15;3.28;;;15.10;99.90;;;;;;6280136;22;20011;-78
2022/05/24 14:36:30;;;;;;;6.38;3.25;;;15.20;99.90;;;;;;6254859;22;20093;-83
2022/05/24 14:39:13;;;;;;;7.82;3.72;;;15.40;99.90;;;;;;6307796;22;20022;-82
2022/05/24 14:41:42;;;;;;;6.88;3.10;;;15.70;99.90;;;;;;6279417;22;20011;-80
2022/05/24 14:44:17;;;;;;;6.80;3.20;;;15.50;99.90;;;;;;6254614;22;20022;-81
2022/05/24 14:46:42;;;;;;;5.82;3.50;;;15.50;99.90;;;;;;6254999;22;20008;-78
2022/05/24 14:49:09;;;;;;;5.10;3.33;;;15.80;99.90;;;;;;6280106;22;20084;-81
2022/05/24 14:51:44;;;;;;;7.32;3.45;;;15.90;99.90;;;;;;6254986;22;20015;-82
2022/05/24 14:54:10;;;;;;;4.30;2.65;;;16.10;99.90;;;;;;6255353;22;20094;-87
2022/05/24 14:56:38;;;;;;;4.93;2.38;;;16.20;99.90;;;;;;6280478;22;20073;-80
2022/05/24 14:59:06;;;;;;;4.60;3.00;;;16.20;99.90;;;;;;6254402;22;20019;-79
2022/05/24 15:01:32;;;;;;;5.82;2.80;;;16.20;99.90;;;;;;6253998;22;20308;-80
2022/05/24 15:03:57;;;;;;;6.22;2.72;;;16.20;99.90;;;;;;6255792;22;20019;-79
2022/05/24 15:06:23;;;;;;;6.80;2.60;;;16.40;99.90;;;;;;6279976;22;20493;-82
2022/05/24 15:17:08;;;;;;;3.83;1.83;;;16.50;99.90;;;;;;6280482;22;20026;-82
2022/05/24 15:19:35;;;;;;;3.17;1.55;;;16.60;99.90;;;;;;6254634;22;20141;-81
2022/05/24 15:22:02;;;;;;;6.93;2.22;;;16.40;99.90;;;;;;6254244;22;20013;-80
2022/05/24 15:24:37;;;;;;;3.75;2.00;;;16.50;99.90;;;;;;6255170;22;20015;-80
2022/05/24 15:27:08;;;;;;;5.00;1.52;;;16.40;99.90;;;;;;6256001;22;20014;-80
2022/05/24 15:29:35;;;;;;;5.28;2.00;;;16.30;99.90;;;;;;6281835;22;20082;-78
2022/05/24 15:32:03;;;;;;;7.47;2.45;;;16.10;99.90;;;;;;6281542;22;20015;-81
2022/05/24 15:34:32;;;;;;;3.55;2.25;;;15.70;99.90;;;;;;6256422;22;20022;-82
2022/05/24 15:36:58;;;;;;;3.67;1.95;;;15.60;99.90;;;;;;6257350;22;20102;-79
2022/05/24 15:39:27;;;;;;;4.13;2.13;;;15.90;99.90;;;;;;6255976;22;20445;-79
2022/05/24 15:43:03;;;;;;;;;;;;;;;;;;;;;
2022/05/24 15:45:32;;;;;;;4.25;2.00;;;15.80;99.90;;;;;;6270235;22;20054;-81
2022/05/24 15:47:59;;;;;;;2.75;2.00;;;16.10;99.90;;;;;;6250970;22;20016;-86
2022/05/24 15:50:25;;;;;;;6.78;2.25;;;16.30;99.90;;;;;;6300612;22;20026;-79
2022/05/24 15:52:51;;;;;;;5.22;2.40;;;16.10;99.90;;;;;;6278109;22;20007;-82
2022/05/24 15:55:17;;;;;;;5.20;2.40;;;15.90;99.90;;;;;;6278721;22;20424;-77
2022/05/24 15:57:42;;;;;;;4.63;2.10;;;16.00;99.90;;;;;;6250567;22;20007;-77
2022/05/24 16:00:12;;;;;;;6.10;2.60;;;16.20;99.90;;;;;;6250573;22;20034;-80
2022/05/24 16:02:38;;;;;;;5.85;2.50;;;15.90;99.90;;;;;;6277920;22;20390;-78
2022/05/24 16:10:33;;;;;;;4.00;3.00;;;15.80;99.90;;;;;;6250002;22;20098;-79
2022/05/24 16:13:00;;;;;;;7.78;3.10;;;15.80;99.90;;;;;;6233441;23;20055;-78
2022/05/24 16:15:29;;;;;;;5.40;2.85;;;16.00;99.90;;;;;;6270487;22;20008;-80
2022/05/24 16:18:01;;;;;;;3.13;2.17;;;16.10;99.90;;;;;;6277846;22;20012;-79
2022/05/24 16:20:27;;;;;;;4.63;2.28;;;16.30;99.90;;;;;;6253159;22;20015;-78
2022/05/24 16:22:53;;;;;;;10.48;2.70;;;16.40;99.90;;;;;;6253740;22;20478;-78
2022/05/24 16:25:19;;;;;;;5.68;2.55;;;16.50;99.90;;;;;;6278244;22;20019;-79
2022/05/24 16:27:45;;;;;;;6.88;2.55;;;16.60;99.90;;;;;;6250248;22;20020;-78
2022/05/24 16:30:14;;;;;;;4.55;2.58;;;16.70;99.90;;;;;;6277699;22;20007;-80
2022/05/24 16:32:40;;;;;;;4.38;1.98;;;16.50;99.90;;;;;;6225228;22;20042;-82
2022/05/24 16:35:06;;;;;;;2.55;1.83;;;16.60;99.90;;;;;;6277080;22;20504;-81
2022/05/24 16:37:32;;;;;;;5.38;1.90;;;16.60;99.90;;;;;;6277339;22;20023;-80
2022/05/24 16:39:58;;;;;;;4.47;2.15;;;16.60;99.90;;;;;;6278266;22;20016;-82
2022/05/24 16:42:24;;;;;;;5.43;1.80;;;16.50;99.90;;;;;;6277581;22;20016;-80
2022/05/24 16:44:49;;;;;;;4.95;1.70;;;16.40;99.90;;;;;;6250166;22;20345;-78
2022/05/24 16:47:15;;;;;;;4.68;1.80;;;16.50;99.90;;;;;;6250183;22;20012;-79
2022/05/24 16:49:41;;;;;;;5.18;2.00;;;16.30;99.90;;;;;;6250359;22;20393;-78
2022/05/24 16:52:07;;;;;;;3.88;2.20;;;16.30;99.90;;;;;;6249979;22;20342;-78
2022/05/24 17:00:14;;;;;;;4.30;2.40;;;16.10;99.90;;;;;;6249551;22;20016;-79
2022/05/24 17:02:50;;;;;;;3.33;1.98;;;16.20;99.90;;;;;;6249579;22;20016;-79
2022/05/24 17:05:21;;;;;;;3.92;1.83;;;16.10;99.90;;;;;;6276757;22;20065;-77
2022/05/24 17:07:47;;;;;;;6.10;2.35;;;16.20;99.90;;;;;;6249925;22;20060;-78
2022/05/24 17:10:14;;;;;;;3.92;2.00;;;16.20;99.90;;;;;;6249473;22;20011;-78
2022/05/24 17:12:41;;;;;;;6.65;2.30;;;16.00;99.90;;;;;;6276923;22;20007;-79
2022/05/24 17:15:10;;;;;;;5.85;2.65;;;15.70;99.90;;;;;;6276978;22;20012;-78
2022/05/24 17:17:40;;;;;;;6.28;2.83;;;15.60;99.90;;;;;;6250138;22;20012;-78
2022/05/24 17:20:09;;;;;;;3.67;2.08;;;15.70;99.90;;;;;;6250570;22;20047;-76
2022/05/24 17:22:34;;;;;;;4.88;2.40;;;15.70;99.90;;;;;;6251041;22;20481;-77
2022/05/24 17:25:00;;;;;;;4.68;2.83;;;15.80;99.90;;;;;;6278214;22;20015;-78
2022/05/24 17:27:26;;;;;;;4.25;2.55;;;15.80;99.90;;;;;;6278409;22;20405;-76
2022/05/24 17:29:52;;;;;;;5.47;2.33;;;15.70;99.90;;;;;;6250329;22;20011;-78
2022/05/24 17:32:24;;;;;;;3.90;2.28;;;15.70;99.90;;;;;;6249236;22;20065;-77
2022/05/24 17:34:50;;;;;;;4.95;2.50;;;15.80;99.90;;;;;;6276797;22;20380;-77
2022/05/24 17:37:17;;;;;;;5.13;3.22;;;15.90;99.90;;;;;;6249070;22;20015;-78
2022/05/24 17:39:43;;;;;;;4.63;2.58;;;15.80;99.90;;;;;;6249442;22;20386;-76
2022/05/24 17:42:10;;;;;;;7.35;2.42;;;15.80;99.90;;;;;;6276871;22;20066;-78
2022/05/24 17:44:37;;;;;;;4.95;2.60;;;15.90;99.90;;;;;;6249676;22;20014;-76
2022/05/24 17:47:03;;;;;;;5.70;2.15;;;15.90;99.90;;;;;;6276594;22;20015;-77
2022/05/24 17:49:29;;;;;;;4.38;2.50;;;16.10;99.90;;;;;;6276393;22;20014;-77
2022/05/24 17:51:57;;;;;;;3.65;2.22;;;16.00;99.90;;;;;;6248983;22;20083;-79
2022/05/24 17:54:23;;;;;;;4.20;2.17;;;15.90;99.90;;;;;;6249729;22;20048;-76
2022/05/24 17:56:49;;;;;;;5.20;2.17;;;15.90;99.90;;;;;;6276674;22;20098;-78
2022/05/24 17:59:15;;;;;;;4.72;2.15;;;15.90;99.90;;;;;;6276500;22;20035;-75
2022/05/24 18:01:41;;;;;;;6.20;2.05;;;15.80;99.90;;;;;;6248832;22;20453;-79
2022/05/24 18:04:09;;;;;;;5.18;2.08;;;15.80;99.90;;;;;;6249136;22;20019;-75
2022/05/24 18:06:36;;;;;;;3.58;1.83;;;15.60;99.90;;;;;;6250308;22;20037;-78
2022/05/24 18:09:05;;;;;;;3.42;2.25;;;15.60;99.90;;;;;;6248994;22;20016;-77
2022/05/24 18:11:32;;;;;;;6.72;3.05;;;15.60;99.90;;;;;;6223693;22;20047;-79
2022/05/24 18:13:57;;;;;;;4.65;2.40;;;15.50;99.90;;;;;;6249252;22;20043;-79
2022/05/24 18:16:23;;;;;;;6.07;2.63;;;15.40;99.90;;;;;;6276551;22;20456;-79
2022/05/24 18:18:50;;;;;;;4.13;2.55;;;15.20;99.90;;;;;;6248995;22;20023;-78
2022/05/24 18:21:20;;;;;;;5.53;2.60;;;15.00;99.90;;;;;;6276245;22;20015;-78
2022/05/24 18:23:53;;;;;;;6.15;3.40;;;15.00;99.90;;;;;;6249385;22;20007;-77
2022/05/24 18:34:44;;;;;;;5.93;3.40;;;14.80;99.90;;;;;;6249019;22;20028;-77
2022/05/24 18:37:13;;;;;;;6.15;3.25;;;14.70;99.90;;;;;;6248863;22;20377;-78
2022/05/24 18:39:39;;;;;;;8.00;2.83;;;14.70;99.90;;;;;;6276377;22;20342;-78
2022/05/24 18:42:07;;;;;;;5.43;2.70;;;14.60;99.90;;;;;;6248396;22;20050;-77
2022/05/24 18:44:33;;;;;;;6.75;3.20;;;14.50;99.90;;;;;;6276175;22;20010;-78
2022/05/24 18:46:58;;;;;;;10.82;3.20;;;14.40;99.90;;;;;;6248968;22;20011;-79
2022/05/24 18:49:24;;;;;;;5.72;2.97;;;14.40;99.90;;;;;;6249207;22;20019;-79
2022/05/24 18:51:50;;;;;;;7.88;3.17;;;14.40;99.90;;;;;;6276116;22;20330;-77
2022/05/24 18:54:15;;;;;;;4.72;2.40;;;14.40;99.90;;;;;;6248705;22;20016;-77
2022/05/24 18:56:41;;;;;;;8.13;3.03;;;14.30;99.90;;;;;;6248913;22;20012;-77
2022/05/24 18:59:09;;;;;;;6.40;2.65;;;14.30;99.90;;;;;;6250109;22;20511;-76
2022/05/24 19:01:36;;;;;;;6.53;3.05;;;14.30;99.90;;;;;;6277541;22;20448;-77
2022/05/24 19:04:01;;;;;;;5.03;2.83;;;14.20;99.90;;;;;;6278254;22;20007;-77
2022/05/24 19:06:27;;;;;;;6.38;2.92;;;14.20;99.90;;;;;;6250686;22;20030;-78
2022/05/24 19:08:53;;;;;;;6.38;3.45;;;14.10;99.90;;;;;;6278122;22;20011;-77
2022/05/24 19:11:19;;;;;;;5.82;2.95;;;14.10;99.90;;;;;;6250730;22;20016;-77
2022/05/24 19:13:45;;;;;;;8.18;3.13;;;14.00;99.90;;;;;;6278383;22;20117;-78